GOLDEN MOUNTAINS TRAIL - 33 KM
Dolnośląski Festiwal Biegów Górskich
Organizator : Fundacja MARATONY GÓRSKIE
Data : 2022-07-14
Miejsce : Lądek-Zdrój
Dystans : 33 km
Mapa : Pokaż
Zgłoszonych : 546
Wystartowało : 467
Nie ukończyło : 14
Ukończyło : 453
Na trasie : 0
Pełne wyniki :
Uproszczone :
Klasyfikacja wg czasu brutto. Wyniki nieoficjalne !!!
MscZawodnikNumerKlubMiejscowośćKrajKategoriaMkatK/MCzas startuStart Lądek
0.01km
A1
9km
Czernica
14km
D1
24km
Czas
netto
33km
Czas
brutto
33km
Różn.Tempo
min/km
Tempo
km/h
           
1WITEK Andrzej 6463140MINUT.PLMIRKÓWSenior II M - 30 1M 100:00:0000:00:0000:43:1701:15:1101:52:5502:35:01.3002:35:01.30 4:4112,8
2RAJCA Michał 6491TRIMPWROCLAWSenior II M - 30 2M 500:00:0000:00:0000:45:1302:00:4702:50:57.8502:50:57.85+00:15:565:1011,6
3CZERNIAK Paweł 6498KARKONOSZ RUNNING TEAMSOSNÓWKASenior II M - 30 3M 600:00:0000:00:0100:46:2701:22:0702:03:3402:53:27.6002:53:27.60+00:18:265:1511,4
4GRÜN Vojtěch 6443SALOMON/SUUNTOBOSKOVICESenior II M - 30 4M 800:00:0000:00:0100:46:4401:23:0302:07:3202:57:41.6002:57:41.60+00:22:405:2311,1
5KARWACZYŃSKI Roger 6118RUNNING TEAM NASTOPY.PLJELENIA GÓRASenior II M - 30 5M 900:00:0000:00:0100:49:1301:26:3702:10:0402:59:14.0502:59:14.05+00:24:125:2511,0
6LULIS Dawid 6055ALTRA TEAM REDWROCŁAWSenior II M - 30 6M 1000:00:0000:00:0100:50:1501:28:3602:13:5803:05:02.5503:05:02.55+00:30:015:3610,7
7BONIEC Radosław 6132NADLEŚNICTWO LIPINKI/140MINUT.PLŻARYSenior II M - 30 7M 1100:00:0000:50:1201:28:5602:14:1603:07:10.6003:07:10.60+00:32:095:4010,6
8SZUMLAŃSKI Marcin 6309PODHALAŃSKIE DZIKI - GORĄCY POTOK TEAMTARNÓWSenior II M - 30 8M 1600:00:0000:00:0600:58:5301:42:5102:35:1003:28:39.9003:28:39.90+00:53:386:199,5
9ŻWIRSKI Marcin 6164NYSASenior II M - 30 9M 2100:00:0000:00:3400:55:3301:35:0602:29:0803:32:12.3503:32:12.35+00:57:116:259,3
10SUDOLSKI Jacek 6339GUSTAW TEŻ BIEGAOLEŚNICASenior II M - 30 10M 2200:00:0000:00:0901:00:0101:43:3502:34:1803:33:15.7503:33:15.75+00:58:146:279,3
11LASEK Jakub 6090RMT TEAMOPOLESenior II M - 30 11M 2300:00:0000:00:0100:57:1901:43:5602:35:1703:38:04.9003:38:04.90+01:03:036:369,1
12GRABEK Maciej 6113ŚLĘZAK TEAMGORZÓW WIELKOPOLSKISenior II M - 30 12M 2500:00:0000:00:0400:57:2301:39:3702:37:2603:41:42.2503:41:42.25+01:06:406:438,9
13WANOWSKI Przemysław 6467#BIEGIEMWLASZIELONA GÓRASenior II M - 30 13M 2600:00:0000:00:1401:00:1101:45:2102:41:0903:43:11.6503:43:11.65+01:08:106:458,9
14SABAT Kamil 6025140MINUT.PLWROCŁAWSenior II M - 30 14M 2700:00:0000:00:0600:58:1601:45:5602:44:1803:43:59.9003:43:59.90+01:08:586:478,8
15KRZYŚKÓW Piotr 6281WROCŁAWSenior II M - 30 15M 2900:00:0000:00:0701:00:5301:47:0302:43:4403:44:36.8503:44:36.85+01:09:356:488,8
16MATENKA Kamil 6197PACMAN RUNNING TEAMWARSZAWASenior II M - 30 16M 3100:00:0000:00:1001:05:0501:52:1602:46:3003:45:48.4003:45:48.40+01:10:476:508,8
17STOŃ Wojciech 6241KORZONEKSenior II M - 30 17M 3200:00:0000:00:1001:05:0502:46:1203:45:49.2003:45:49.20+01:10:476:508,8
18PACEK Tomasz 6370FIZJOBJEGACZE SZCZECINSZCZECINSenior II M - 30 18M 3400:00:0000:00:1001:07:0602:46:2803:47:16.3003:47:16.30+01:12:156:538,7
19NOWACZYK Piotr 6227MERIXSTUDIO RUNNING TEAMPOZNAŃSenior II M - 30 19M 3900:00:0000:00:1801:04:4101:49:0702:46:5603:50:09.3003:50:09.30+01:15:086:588,6
20SEVCIK Ondrej 6489SEVCIK.DEVPETRVALDSenior II M - 30 20M 4000:00:0000:00:0601:04:5301:49:2302:51:0903:50:40.8503:50:40.85+01:15:396:598,6
21CICHOWSKI Wojciech 6238140MINUT.PLPRZYGODZICESenior II M - 30 21M 4200:00:0000:00:1901:00:2901:48:1402:46:2403:51:14.9003:51:14.90+01:16:137:008,6
22WYCHOWANIEC Paweł 6006JELCZ-LASKOWICESenior II M - 30 22M 4600:00:0000:00:1601:02:1602:49:3703:54:06.1503:54:06.15+01:19:047:058,5
23ANUSZ Adam 6431BECOMEONEIMBRAMOWICESenior II M - 30 23M 4900:00:0000:00:0600:59:5601:47:1802:46:1003:54:48.9503:54:48.95+01:19:477:068,4
24DUCHNOWSKI Łukasz 6504RUN TEAM TYGRYSY ORZYSZCHRUŚCIELESenior II M - 30 24M 5200:00:0000:00:0100:59:4401:48:5802:47:1903:56:39.9003:56:39.90+01:21:387:108,4
25KAMIŃSKI Piotr 6494RUN YOUR TRAILINOWROCŁAWSenior II M - 30 25M 5300:00:0000:00:0500:59:1901:45:0102:44:2103:57:24.6503:57:24.65+01:22:237:118,3
26TOMASZKIEWICZ Wojciech 6105RUN FORESTSTRACHOCINSenior II M - 30 26M 5400:00:0000:00:0701:02:2701:53:1202:52:2803:58:51.1003:58:51.10+01:23:497:148,3
27ŻBIK Bartosz 6384PLEWISKASenior II M - 30 27M 5700:00:0000:00:1501:00:5401:48:4902:50:2004:01:04.7004:01:04.70+01:26:037:188,2
28KOWALCZYK Rafał 6338SIGMA TECHNOLOGY & ENERGY SOLUTIONSKATOWICESenior II M - 30 28M 5900:00:0000:00:2701:07:5001:56:0602:53:4304:03:20.3504:03:20.35+01:28:197:228,1
29DROBNIK Błażej 6294OPALENICKI KLUB BIEGACZAOPALENICASenior II M - 30 29M 6000:00:0000:00:0201:08:4302:01:3503:00:5904:05:47.8004:05:47.80+01:30:467:268,1
30WANAT Mateusz 6382PRZEDWOJEWSKI TEAMWROCŁAWSenior II M - 30 30M 6100:00:0000:00:0801:05:1401:56:4402:56:5904:07:02.6504:07:02.65+01:32:017:298,0
31RASZKOWSKI Piotr 6335ŚLĘZAK TEAMGDAŃSKSenior II M - 30 31M 6300:00:0000:00:0501:10:5502:53:2204:08:35.1504:08:35.15+01:33:337:318,0
32KUDREJ Grzegorz 6465MOCNA GRUPA CEZARAWROCŁAWSenior II M - 30 32M 6500:00:0000:00:2101:06:3502:00:4503:01:3404:09:31.4504:09:31.45+01:34:307:337,9
33MYSZKIEWICZ Paweł 6012MOCNA GRUPA CEZARAWROCŁAWSenior II M - 30 33M 6900:00:0000:00:1901:11:2902:02:0703:04:2604:11:52.0504:11:52.05+01:36:507:377,9
34SAJ Jakub 6362DRUŻYNA ŻWARSZAWASenior II M - 30 34M 7300:00:0000:00:1201:06:0001:58:3202:59:4804:13:34.6504:13:34.65+01:38:337:417,8
35TOMCZAK Dariusz 6487GOSTYŃSenior II M - 30 35M 7900:00:0000:00:1601:13:0702:05:4603:08:4904:17:36.5504:17:36.55+01:42:357:487,7
36JACHIRA Patryk 6464STAJNIAKTEAMPOZNAŃSenior II M - 30 36M 8000:00:0001:17:1502:12:5903:14:2504:17:51.6004:17:51.60+01:42:507:487,7
37ANDRZEJEWSKI Dominik 6280KB GEPARD MUROWANA GOŚLINAMUROWANA GOŚLINASenior II M - 30 37M 8500:00:0000:00:3801:11:2503:08:3704:21:41.0504:21:41.05+01:46:397:557,6
38KOSIERADZKI Łukasz 6351KRAKÓWSenior II M - 30 38M 8700:00:0000:00:0601:12:0302:06:5703:14:1004:24:07.8004:24:07.80+01:49:068:007,5
39TOMCZYK Rafał 6078PODDĘBICKI KLUB BIEGACZA ZDYSZANI.PLPODDĘBICESenior II M - 30 39M 8800:00:0000:00:1001:10:2102:02:1203:10:3904:24:15.9004:24:15.90+01:49:148:007,5
40BŁASZCZAK Marek 6154MOCNA GRUPA CEZARAWROCŁAWSenior II M - 30 40M 9000:00:0000:00:1901:09:4402:04:1603:12:3304:25:36.3004:25:36.30+01:50:358:027,5
41RUTKOWSKI Jakub 6260POZNAŃSenior II M - 30 41M 9300:00:0000:00:1201:08:2302:04:1003:12:1904:26:26.2004:26:26.20+01:51:248:047,4
42FRERIKS Jeroen 6373LEIDEN ATLETIEKLEIDENSenior II M - 30 42M 10000:00:0000:00:4801:24:1702:16:2703:21:4004:29:27.5504:29:27.55+01:54:268:097,3
43BUCZAK Jakub 6001LĄDEK ZDRÓJSenior II M - 30 43M 10300:00:0000:00:0101:13:5002:08:5603:17:2504:30:57.8504:30:57.85+01:55:568:127,3
44SAWICKI Bartosz 6158DZIKIE DZIKI GORZÓWGORZÓW WIELKOPOLSKISenior II M - 30 44M 10800:00:0000:00:1001:12:1202:08:1503:19:4004:33:34.0504:33:34.05+01:58:328:177,2
45KRAWCZYK Robert 6125WOLSZTYNSenior II M - 30 45M 11100:00:0000:00:1201:13:2302:07:5103:16:5404:34:06.4004:34:06.40+01:59:058:187,2
46GAJDA Michał 6221POZNAŃSenior II M - 30 46M 11200:00:0000:00:2101:24:2702:24:5003:27:0204:34:35.6504:34:35.65+01:59:348:197,2
47TUREK Marcin 6414KĘSY TEAMOBORNIKISenior II M - 30 47M 12100:00:0000:00:1401:17:3902:13:5403:23:0304:38:01.4504:38:01.45+02:03:008:257,1
48LISIAK Bartosz 6298KB GEPARD MUROWANA GOŚLINAMUROWANA GOŚLINASenior II M - 30 48M 12400:00:0000:00:3401:18:4702:14:1603:19:4404:38:23.2504:38:23.25+02:03:218:267,1
49NOWAK Tomasz 6152BW BIEGACZE WYMIATACZEKRAKÓWSenior II M - 30 49M 12700:00:0000:00:5701:22:5502:21:3203:33:2204:41:38.0504:41:38.05+02:06:368:327,0
50MAKAREWICZ Wiktor 6276KUDŁATE MAKARONYWARSZAWASenior II M - 30 50M 12800:00:0000:01:0501:23:3803:28:0504:41:48.6504:41:48.65+02:06:478:327,0
51GUZERA Tomasz 6244WROCŁAWSenior II M - 30 51M 13100:00:0000:01:0801:17:0202:11:3903:27:1904:43:25.9004:43:25.90+02:08:248:357,0
52WAŚ Bartłomiej 6454STG WARSZAWAWARSZAWASenior II M - 30 52M 13400:00:0000:00:1401:14:0602:16:1603:24:4604:47:34.2504:47:34.25+02:12:328:426,9
53BIEDA Bernard 6406BUDIPOLCZĘSTOCHOWASenior II M - 30 53M 13600:00:0000:02:0701:27:5502:26:5303:37:2504:47:51.8004:47:51.80+02:12:508:436,9
54TORZEWSKI Przemysław 6475WĄGROWIECSenior II M - 30 54M 13700:00:0000:00:3001:25:5902:25:2303:32:4404:47:52.4504:47:52.45+02:12:518:436,9
55STĘPNOWSKI Jakub 6420UPACJENTA.PLLEGIONOWOSenior II M - 30 55M 14000:00:0000:01:1701:27:4102:23:5903:30:2004:49:50.6504:49:50.65+02:14:498:466,8
56TOMAKA Maciej 6476TEAM KURORT LĄDEK-ZDRÓJKŁODZKOSenior II M - 30 56M 14400:00:0000:00:5001:20:0402:25:3903:44:5804:51:29.0004:51:29.00+02:16:278:496,8
57SZOFER Adam 6245NKB CHYŻY NOWY TOMYŚLSATOPYSenior II M - 30 57M 14600:00:0000:01:0101:29:4602:26:1203:36:2904:51:41.1004:51:41.10+02:16:398:506,8
58TRZPIOLA Tycjan 6013KURACJUSZEWROCŁAWSenior II M - 30 58M 14800:00:0000:00:2101:16:1102:17:3003:32:5604:51:44.9004:51:44.90+02:16:438:506,8
59BUDZIAK Michał 6415RACIBÓRZSenior II M - 30 59M 15400:00:0000:00:0401:13:1902:11:1903:30:5404:53:37.5004:53:37.50+02:18:368:536,7
60PAPAJ Jakub 6340BIELSKO-BIAŁASenior II M - 30 60M 15700:00:0000:00:0901:10:5002:09:2503:31:5404:55:06.0004:55:06.00+02:20:048:566,7
61ZDAŃSKI Paweł 6180KATOWICESenior II M - 30 61M 15900:00:0000:00:2201:17:4903:35:5004:55:23.9004:55:23.90+02:20:228:576,7
62KAWA Hubert 6208NKB CHYŻY NOWY TOMYŚLNOWY TOMYŚLSenior II M - 30 62M 16300:00:0000:00:0201:17:1502:17:3603:33:1204:57:06.1004:57:06.10+02:22:049:006,7
63KONSEK Jacek 6048RYBNIKSenior II M - 30 63M 16500:00:0000:00:0401:18:1203:37:5304:57:30.1504:57:30.15+02:22:289:006,7
64HATALSKI Wojciech 6470EKIPA JTMWROCŁAWSenior II M - 30 64M 17100:00:0000:00:2401:18:5503:42:4004:59:00.4504:59:00.45+02:23:599:036,6
65KOWALCZYK Marcin 6293OSOLASenior II M - 30 65M 17300:00:0000:01:0001:26:2302:23:0003:41:3204:59:46.0504:59:46.05+02:24:449:056,6
66JOPA Maciej 6226KRAKÓWSenior II M - 30 66M 17500:00:0000:00:2601:16:1702:15:5303:36:3704:59:50.9004:59:50.90+02:24:499:056,6
67CHMIELOWIEC Norbert 6514LEGNICASenior II M - 30 67M 17700:00:0000:00:2601:18:2602:23:1303:43:0005:00:53.9505:00:53.95+02:25:529:076,6
68MIEDZIŃSKI Michał 6314JKS SALAMANDRAJAWORSenior II M - 30 68M 17800:00:0000:00:2601:16:1502:25:0703:41:0805:01:12.9505:01:12.95+02:26:119:076,6
69RUŚKIEWICZ Wojciech Ruśkiewicz 6047DELOITTE ADVENTURE TEAMSZCZECINSenior II M - 30 69M 18200:00:0000:00:3501:13:3102:12:3903:45:2605:02:39.3505:02:39.35+02:27:389:106,5
70MARNYSZ Michał 6153KOSTRZYN NAD ODRĄSenior II M - 30 70M 18400:00:0000:01:0001:30:5802:35:5903:58:0705:04:17.4005:04:17.40+02:29:169:136,5
71DĄBROWSKI Michal 6428OSTRÓW MAZOWIECKASenior II M - 30 71M 18700:00:0000:00:1501:19:0702:23:5603:42:2905:05:29.1505:05:29.15+02:30:279:156,5
72PODBOROŻNY Karol 6251POZNANSenior II M - 30 72M 18800:00:0000:01:1201:22:2102:21:3603:41:3205:05:44.7005:05:44.70+02:30:439:156,5
73MAŃKOWSKI Tomasz 6230HOMAG RUN TEAMWITASZYCESenior II M - 30 73M 19000:00:0000:01:1201:24:2302:24:2603:45:0905:05:55.0005:05:55.00+02:30:539:166,5
74JANKOWSKI Łukasz 6043STAN UMYSŁU LEWIN BIEGAOLSZANKASenior II M - 30 74M 19800:00:0000:00:4701:27:2503:52:0205:10:41.2505:10:41.25+02:35:399:246,4
75ZIEWIEC Marcin 6111RADWANICESenior II M - 30 75M 19900:00:0000:00:4501:21:5302:24:0303:50:1705:10:43.7005:10:43.70+02:35:429:246,4
76BOIŃSKI Bartosz 6346EUROCASHPOZNAŃSenior II M - 30 76M 20600:00:0000:01:1501:28:4402:27:0003:55:3705:13:07.8505:13:07.85+02:38:069:296,3
77LENART Jakub 6163WROCŁAWSenior II M - 30 77M 21100:00:0000:00:3801:23:5602:27:1903:47:1505:15:42.2505:15:42.25+02:40:409:346,3
78GMAJ Daniel 6250GRÓJECSenior II M - 30 78M 21200:00:0000:00:2801:24:2602:28:2203:49:3505:16:08.3005:16:08.30+02:41:079:346,3
79NOBILE Riccardo 6449KRAKOWSenior II M - 30 79M 21400:00:0000:00:2501:21:3503:44:0805:16:26.2005:16:26.20+02:41:249:356,3
80MIŚTALSKI Damian 6451BYTOMSenior II M - 30 80M 21600:00:0000:00:2901:20:0202:25:1903:56:1505:17:33.6005:17:33.60+02:42:329:376,2
81BARANOWSKI Szymon 6091NOWY TOMYŚLSenior II M - 30 81M 21800:00:0000:00:1701:25:4102:28:0703:52:3805:18:05.1005:18:05.10+02:43:039:386,2
82PISKORZ Jarosław 6472POZNAŃSenior II M - 30 82M 22100:00:0000:00:5801:34:4602:40:4904:00:0005:18:33.5505:18:33.55+02:43:329:396,2
83HORODYSKI Marek 6156BOLESŁAWIECSenior II M - 30 83M 22200:00:0000:00:4501:23:4202:29:2403:53:4805:18:38.1505:18:38.15+02:43:369:396,2
84TOWPIK Piotr 6079KŁODZKOSenior II M - 30 84M 22600:00:0000:00:4901:23:0202:27:4203:53:0905:18:49.5505:18:49.55+02:43:489:396,2
85KOCZOROWSKI Jakub 6492LIGOTA PIĘKNASenior II M - 30 85M 24200:00:0000:01:1401:33:5502:41:2204:01:3305:28:19.2505:28:19.25+02:53:179:566,0
86DRYGAJŁO Tomasz 6151BARANÓWKASenior II M - 30 86M 24300:00:0000:01:0001:30:5903:58:0905:29:27.8505:29:27.85+02:54:269:596,0
87BEDNARZ Patryk 6502GRZDYLNIA B1 TEAMWARSZAWASenior II M - 30 87M 24600:00:0000:00:2101:21:3404:03:2905:31:53.2005:31:53.20+02:56:5110:036,0
88ŚWIĘCHOWICZ Michał 6503BYDGOSZCZSenior II M - 30 88M 24700:00:0000:00:2101:21:3704:03:3005:31:53.8505:31:53.85+02:56:5210:036,0
89SERBA Michał 6037KB SZAMOTUŁYSZAMOTUŁYSenior II M - 30 89M 25000:00:0000:00:5801:24:3202:36:0704:06:5305:34:17.5005:34:17.50+02:59:1610:075,9
90SZMATLOCH Bartłomiej 6345RETROBAJTELKATOWICESenior II M - 30 90M 25100:00:0000:00:2901:36:4702:47:1004:10:5905:35:04.6005:35:04.60+03:00:0310:095,9
91BASEK Damian 6136ALSTOM KATOWICESIEMIANOWICE ŚLĄSKIESenior II M - 30 91M 25500:00:0000:00:1101:29:5102:43:4004:20:3105:36:23.6505:36:23.65+03:01:2210:115,9
92KUBICA Paweł 6270GÓRYLASY / MKS SIECHNICESIECHNICESenior II M - 30 92M 25600:00:0000:01:0601:19:4004:11:2505:37:51.8005:37:51.80+03:02:5010:145,9
93JĘDRZEJCZAK Artur 6257KAMIONKISenior II M - 30 93M 25700:00:0000:00:3301:31:3804:13:5805:38:31.4505:38:31.45+03:03:3010:155,8
94HAMPEL Patryk 6440BODY POWERLESZNOSenior II M - 30 94M 25800:00:0000:00:1101:26:4602:35:4104:08:3805:38:56.7005:38:56.70+03:03:5510:165,8
95JASNOWSKI Paweł 6258GOGOKLUBPOZNAŃSenior II M - 30 95M 27100:00:0000:00:1301:31:2004:13:1905:49:37.6505:49:37.65+03:14:3610:355,7
96CIĄPAŁA Jakub 6128DZIKIE ŚWINIEMOSINASenior II M - 30 96M 27300:00:0000:02:0801:37:4502:43:3104:10:4505:50:07.0005:50:07.00+03:15:0510:365,7
97NIEWIADOMSKI Marek 6082CROSS KRAPKOWICEKRAPKOWICESenior II M - 30 97M 27600:00:0000:00:5601:29:4302:35:1404:19:2805:53:01.5005:53:01.50+03:18:0010:415,6
98SŁODKIEWICZ Piotr 6228KNEIPPTEAMŁÓDŹSenior II M - 30 98M 27900:00:0000:00:5501:29:2402:41:5204:14:5805:53:44.3005:53:44.30+03:18:4310:435,6
99CHMIELEWSKI Mariusz 6234#STAJNIAKTEAMCHRÓŚCICESenior II M - 30 99M 28700:00:0000:00:3701:27:3004:20:0806:00:30.1006:00:30.10+03:25:2810:555,5
100PODSIADŁY Maciej 6166KS STASZEWSCYWARSZAWASenior II M - 30 100M 28900:00:0000:00:4001:41:3702:52:2904:25:0306:01:06.0506:01:06.05+03:26:0410:565,5
101STASZKO Łukasz 6537HITACHIŁÓDŹSenior II M - 30 101M 30100:00:0000:00:4901:30:0002:39:3604:32:0606:17:33.4506:17:33.45+03:42:3211:265,2
102DAJCZER Jakub 6404ŁÓDŹSenior II M - 30 102M 30300:00:0000:00:4701:29:5902:39:4004:32:0606:18:04.1006:18:04.10+03:43:0211:275,2
103KACPRZYCKI Tomasz 6162POZNAŃSenior II M - 30 103M 30600:00:0000:01:0201:47:1703:04:3404:46:1606:29:01.2506:29:01.25+03:53:5911:475,1
104SZYMAŃSKI Jarosław 62531ON1 TEAMŁÓDŹSenior II M - 30 104M 30700:00:0000:00:2001:43:4803:08:0904:54:3206:31:30.1506:31:30.15+03:56:2811:515,1
105MILAN Grzegorz 6216OLSZTYNSenior II M - 30 105M 31400:00:0000:01:3301:51:4003:10:0204:50:0306:53:53.1506:53:53.15+04:18:5112:324,8
Niesklasyfikowani
BIELA Konrad 6106GOPR KARKONOSZEKOWARYSenior II M - 30 DNF00:00:04 DNF01:01:01 DNF DNF DNF DNF DNF--
Znaleziono 106 wynik(ów)